Time;durP1;ratioP1;P1;durP2;ratioP2;P2;SDS_P1;SDS_P2;PMS_P1;PMS_P2;Temp;Humidity;BMP_temperature;BMP_pressure;BME280_temperature;BME280_humidity;BME280_pressure;Samples;Min_cycle;Max_cycle;Signal;HPM_P1;HPM_P2
2021/09/27 00:00:07;;;;;;;28.95;25.95;;;18.00;96.30;;;;;;5102244;27;20043;-67
2021/09/27 00:02:33;;;;;;;25.13;19.60;;;18.00;96.40;;;;;;5113987;27;20044;-67
2021/09/27 00:04:59;;;;;;;27.02;24.17;;;18.00;96.50;;;;;;5104293;27;20040;-67
2021/09/27 00:07:27;;;;;;;31.85;27.23;;;18.00;96.50;;;;;;5104376;27;20505;-66
2021/09/27 00:09:54;;;;;;;29.67;26.58;;;18.00;96.50;;;;;;5082049;27;20119;-67
2021/09/27 00:12:19;;;;;;;29.70;26.50;;;18.00;96.50;;;;;;5091215;28;20050;-67
2021/09/27 00:14:45;;;;;;;27.90;24.95;;;18.00;96.60;;;;;;5102580;27;20553;-67
2021/09/27 00:17:11;;;;;;;28.77;24.98;;;17.90;96.60;;;;;;5104478;27;20044;-67
2021/09/27 00:19:37;;;;;;;29.15;26.02;;;17.90;96.70;;;;;;5103858;27;20050;-67
2021/09/27 00:22:05;;;;;;;30.33;26.27;;;17.80;96.80;;;;;;5101261;27;20031;-67
2021/09/27 00:24:32;;;;;;;29.48;25.15;;;17.90;96.90;;;;;;5099053;27;20071;-67
2021/09/27 00:26:58;;;;;;;28.33;25.40;;;17.90;96.90;;;;;;5109862;27;20028;-67
2021/09/27 00:29:24;;;;;;;32.40;25.83;;;17.80;96.90;;;;;;5102605;27;20039;-67
2021/09/27 00:31:50;;;;;;;27.92;24.73;;;17.80;97.00;;;;;;5103787;27;20039;-67
2021/09/27 00:34:15;;;;;;;29.98;25.20;;;17.80;97.00;;;;;;5102654;27;20490;-67
2021/09/27 00:36:41;;;;;;;33.85;25.30;;;17.80;97.00;;;;;;5097192;27;20043;-67
2021/09/27 00:39:07;;;;;;;25.52;22.88;;;17.80;97.10;;;;;;5105973;27;20532;-68
2021/09/27 00:41:35;;;;;;;26.60;23.80;;;17.80;97.00;;;;;;5106627;27;20042;-67
2021/09/27 00:44:00;;;;;;;26.75;23.15;;;17.70;97.00;;;;;;5104037;27;20101;-68
2021/09/27 00:46:28;;;;;;;25.42;20.88;;;17.70;97.00;;;;;;5102377;27;20052;-69
2021/09/27 00:48:55;;;;;;;30.00;22.92;;;17.80;97.00;;;;;;5103119;27;20403;-69
2021/09/27 00:51:25;;;;;;;25.92;23.15;;;17.80;96.90;;;;;;5108286;27;20087;-68
2021/09/27 00:54:02;;;;;;;25.83;22.98;;;17.80;96.80;;;;;;5103954;27;20044;-69
2021/09/27 00:56:32;;;;;;;27.38;23.35;;;17.70;96.80;;;;;;5109417;27;20092;-69
2021/09/27 00:58:59;;;;;;;26.50;22.63;;;17.60;96.80;;;;;;5107321;27;20039;-69
2021/09/27 01:01:25;;;;;;;31.02;23.50;;;17.60;96.90;;;;;;5105070;27;20031;-69
2021/09/27 01:03:53;;;;;;;25.80;22.52;;;17.50;96.90;;;;;;5103674;27;20050;-69
2021/09/27 01:06:40;;;;;;;29.67;23.05;;;17.50;96.90;;;;;;5101912;27;20075;-67
2021/09/27 01:09:25;;;;;;;25.77;22.85;;;17.40;97.00;;;;;;5084284;28;20043;-67
2021/09/27 01:11:53;;;;;;;27.00;22.10;;;17.40;96.90;;;;;;5104246;27;20130;-67
2021/09/27 01:14:43;;;;;;;25.45;22.02;;;17.30;97.10;;;;;;5094769;28;20047;-67
2021/09/27 01:17:29;;;;;;;28.33;21.90;;;17.30;96.90;;;;;;5103947;27;20756;-67
2021/09/27 01:20:13;;;;;;;23.02;20.65;;;17.20;97.00;;;;;;5106072;27;20042;-67
2021/09/27 01:23:06;;;;;;;23.80;20.38;;;17.20;97.10;;;;;;5107850;27;20039;-67
2021/09/27 01:26:00;;;;;;;27.23;21.25;;;17.20;97.10;;;;;;5097186;28;20116;-66
2021/09/27 01:28:45;;;;;;;28.50;20.77;;;17.10;97.10;;;;;;5106356;27;20042;-67
2021/09/27 01:31:31;;;;;;;29.45;21.20;;;17.20;97.20;;;;;;5103047;27;20043;-67
2021/09/27 01:34:18;;;;;;;27.15;21.05;;;17.10;97.10;;;;;;5103716;27;20035;-67
2021/09/27 01:37:25;;;;;;;23.50;20.08;;;17.10;97.20;;;;;;5104742;27;20118;-67
2021/09/27 01:40:02;;;;;;;25.23;21.77;;;17.10;97.10;;;;;;5091634;27;20096;-67
2021/09/27 01:43:03;;;;;;;25.60;20.92;;;17.00;97.30;;;;;;5107610;27;20040;-67
2021/09/27 01:45:52;;;;;;;27.40;19.67;;;17.00;97.30;;;;;;5102146;27;20425;-68
2021/09/27 01:48:21;;;;;;;25.23;20.23;;;17.00;97.40;;;;;;5095593;28;20122;-68
2021/09/27 01:51:06;;;;;;;26.98;20.63;;;17.00;97.50;;;;;;5102158;28;20035;-69
2021/09/27 01:53:42;;;;;;;23.70;20.65;;;17.00;97.40;;;;;;5098150;28;20074;-69
2021/09/27 01:56:49;;;;;;;24.85;20.73;;;17.00;97.50;;;;;;5105769;27;20036;-69
2021/09/27 01:59:33;;;;;;;26.30;20.75;;;17.00;97.40;;;;;;5103678;28;20105;-69
2021/09/27 02:02:09;;;;;;;25.42;21.73;;;17.00;97.50;;;;;;5106028;28;20035;-69
2021/09/27 02:05:01;;;;;;;23.08;19.77;;;16.90;97.50;;;;;;5105412;28;20039;-69
2021/09/27 02:07:30;;;;;;;26.55;21.00;;;17.00;97.30;;;;;;5105319;28;20043;-67
2021/09/27 02:10:18;;;;;;;25.45;22.63;;;16.90;97.50;;;;;;5106804;28;20044;-67
2021/09/27 02:12:50;;;;;;;25.83;22.80;;;17.00;97.50;;;;;;5099138;28;20081;-67
2021/09/27 02:15:39;;;;;;;24.52;21.92;;;16.90;97.40;;;;;;5096577;28;20054;-68
2021/09/27 02:18:48;;;;;;;30.55;22.77;;;16.90;97.30;;;;;;5107648;28;20051;-66
2021/09/27 02:21:19;;;;;;;27.08;23.58;;;16.90;97.60;;;;;;5078773;28;20495;-67
2021/09/27 02:23:52;;;;;;;26.10;23.30;;;16.90;97.50;;;;;;5080863;28;20141;-70
2021/09/27 02:26:18;;;;;;;28.90;24.27;;;16.80;97.50;;;;;;5107130;27;20062;-69
2021/09/27 02:28:44;;;;;;;28.55;24.10;;;16.80;97.50;;;;;;5096127;27;20489;-69
2021/09/27 02:31:15;;;;;;;32.90;24.80;;;16.90;97.50;;;;;;5082866;27;20497;-69
2021/09/27 02:34:13;;;;;;;30.02;24.38;;;16.80;97.30;;;;;;5114636;27;20035;-69
2021/09/27 02:36:50;;;;;;;27.92;23.85;;;16.80;97.20;;;;;;5108976;27;20055;-69
2021/09/27 02:39:45;;;;;;;35.50;24.92;;;16.70;97.50;;;;;;5089758;27;20130;-69
2021/09/27 02:42:31;;;;;;;28.60;23.73;;;16.70;97.40;;;;;;5107829;27;20518;-69
2021/09/27 02:44:57;;;;;;;28.75;22.33;;;16.70;97.70;;;;;;5110650;27;20059;-70
2021/09/27 02:47:53;;;;;;;26.42;22.63;;;16.70;97.70;;;;;;5109386;27;20049;-69
2021/09/27 02:50:27;;;;;;;27.40;22.40;;;16.80;97.70;;;;;;5112074;27;20048;-69
2021/09/27 02:52:55;;;;;;;26.67;22.83;;;16.80;97.90;;;;;;5100149;28;20044;-68
2021/09/27 02:55:30;;;;;;;27.73;21.83;;;16.80;97.90;;;;;;5109960;27;20036;-68
2021/09/27 02:58:34;;;;;;;31.52;22.30;;;16.80;97.90;;;;;;5111080;27;20521;-69
2021/09/27 03:01:19;;;;;;;26.60;21.58;;;16.90;97.70;;;;;;5078065;27;20088;-70
2021/09/27 03:04:00;;;;;;;24.23;20.58;;;16.80;97.90;;;;;;5110102;27;20535;-69
2021/09/27 03:06:28;;;;;;;25.15;21.20;;;16.80;97.90;;;;;;5110221;27;20092;-69
2021/09/27 03:08:57;;;;;;;28.77;21.85;;;16.70;97.90;;;;;;5112408;27;20066;-67
2021/09/27 03:11:22;;;;;;;24.13;20.35;;;16.70;97.80;;;;;;5101642;27;20109;-67
2021/09/27 03:13:59;;;;;;;27.27;21.38;;;16.70;97.80;;;;;;5104436;27;20039;-67
2021/09/27 03:16:50;;;;;;;25.92;21.33;;;16.60;97.80;;;;;;5098255;27;20561;-67
2021/09/27 03:19:31;;;;;;;25.85;21.65;;;16.60;97.90;;;;;;5111048;27;20044;-67
2021/09/27 03:22:31;;;;;;;27.33;21.70;;;16.60;97.80;;;;;;5096884;27;20423;-67
2021/09/27 03:25:18;;;;;;;27.02;21.85;;;16.50;97.80;;;;;;5109538;27;20047;-67
2021/09/27 03:28:02;;;;;;;28.55;22.55;;;16.40;97.90;;;;;;5110014;27;20456;-67
2021/09/27 03:30:40;;;;;;;28.48;22.02;;;16.40;98.00;;;;;;5106893;27;20040;-67
2021/09/27 03:33:43;;;;;;;27.45;22.67;;;16.30;98.00;;;;;;5099376;27;20047;-67
2021/09/27 03:36:32;;;;;;;26.52;21.48;;;16.30;98.10;;;;;;5091777;27;20044;-67
2021/09/27 03:39:29;;;;;;;28.40;22.00;;;16.20;98.20;;;;;;5102500;27;20036;-67
2021/09/27 03:42:11;;;;;;;25.48;21.17;;;16.20;98.20;;;;;;5082401;27;20047;-68
2021/09/27 03:45:00;;;;;;;24.05;21.15;;;16.20;98.40;;;;;;5107052;27;20044;-67
2021/09/27 03:47:46;;;;;;;27.70;22.17;;;16.10;98.40;;;;;;5109689;27;20047;-67
2021/09/27 03:50:34;;;;;;;26.30;22.33;;;16.10;98.40;;;;;;5105018;27;20089;-67
2021/09/27 03:53:14;;;;;;;26.83;20.10;;;16.10;98.40;;;;;;5080764;27;20044;-67
2021/09/27 03:55:51;;;;;;;23.85;21.02;;;16.00;98.30;;;;;;5107473;27;20399;-67
2021/09/27 03:58:22;;;;;;;26.15;21.25;;;16.00;98.40;;;;;;5110780;27;20559;-67
2021/09/27 04:01:03;;;;;;;31.80;21.83;;;16.00;98.40;;;;;;5126348;27;20039;-67
2021/09/27 04:03:53;;;;;;;26.95;22.23;;;16.00;98.50;;;;;;5109286;27;20071;-67
2021/09/27 04:06:30;;;;;;;34.88;22.70;;;16.00;98.50;;;;;;5102252;27;20062;-62
2021/09/27 04:09:05;;;;;;;25.10;21.55;;;15.90;98.60;;;;;;5106363;27;22301;-61
2021/09/27 04:11:40;;;;;;;27.05;21.80;;;15.90;98.60;;;;;;5108479;27;20114;-62
2021/09/27 04:14:17;;;;;;;27.80;22.02;;;15.90;98.70;;;;;;5103576;27;20100;-62
2021/09/27 04:17:02;;;;;;;28.80;23.63;;;15.90;98.70;;;;;;5108382;27;20477;-62
2021/09/27 04:19:46;;;;;;;28.33;21.67;;;15.90;98.60;;;;;;5111423;27;20061;-62
2021/09/27 04:22:18;;;;;;;28.02;22.40;;;15.90;98.70;;;;;;5106914;27;20082;-62
2021/09/27 04:25:19;;;;;;;31.15;22.80;;;15.90;98.70;;;;;;5107818;27;20042;-62
2021/09/27 04:28:16;;;;;;;29.17;23.42;;;15.90;98.60;;;;;;5106571;27;20047;-62
2021/09/27 04:30:51;;;;;;;31.50;23.23;;;15.80;98.70;;;;;;5107098;27;20075;-61
2021/09/27 04:33:36;;;;;;;30.75;25.25;;;15.80;98.80;;;;;;5109575;27;20042;-61
2021/09/27 04:36:20;;;;;;;32.95;23.08;;;15.80;98.80;;;;;;5107669;27;20035;-62
2021/09/27 04:38:48;;;;;;;28.98;22.05;;;15.80;98.80;;;;;;5110673;27;20612;-62
2021/09/27 04:41:42;;;;;;;32.10;22.70;;;15.70;98.80;;;;;;5102817;27;20483;-62
2021/09/27 04:44:20;;;;;;;29.13;22.42;;;15.60;98.70;;;;;;5098376;27;20044;-62
2021/09/27 04:46:55;;;;;;;30.00;22.77;;;15.60;98.70;;;;;;5098057;27;20059;-62
2021/09/27 04:49:36;;;;;;;27.38;22.35;;;15.50;98.80;;;;;;5106849;27;20035;-62
2021/09/27 04:52:06;;;;;;;31.58;22.67;;;15.60;98.80;;;;;;5106806;27;20070;-62
2021/09/27 04:55:07;;;;;;;27.95;22.45;;;15.60;98.90;;;;;;5108439;27;20047;-63
2021/09/27 04:57:49;;;;;;;26.42;22.55;;;15.60;98.90;;;;;;5108772;27;20040;-62
2021/09/27 05:00:35;;;;;;;28.83;23.42;;;15.60;99.00;;;;;;5107036;27;20043;-62
2021/09/27 05:03:15;;;;;;;32.88;22.00;;;15.60;98.90;;;;;;5106732;27;20047;-62
2021/09/27 05:06:33;;;;;;;26.17;20.42;;;15.60;99.00;;;;;;5105549;27;20122;-62
2021/09/27 05:09:13;;;;;;;27.27;23.08;;;15.70;99.00;;;;;;5072530;28;20047;-62
2021/09/27 05:11:57;;;;;;;32.20;22.88;;;15.60;99.00;;;;;;5100270;27;20043;-62
2021/09/27 05:14:41;;;;;;;29.10;23.98;;;15.70;99.00;;;;;;5109568;27;20039;-62
2021/09/27 05:17:34;;;;;;;27.65;23.25;;;15.60;98.90;;;;;;5108935;27;20362;-62
2021/09/27 05:20:32;;;;;;;32.00;23.58;;;15.60;99.00;;;;;;5103703;27;20089;-62
2021/09/27 05:23:27;;;;;;;30.38;23.13;;;15.50;98.90;;;;;;5107300;27;20043;-62
2021/09/27 05:26:31;;;;;;;32.15;23.13;;;15.50;99.00;;;;;;5095783;27;20044;-62
2021/09/27 05:29:14;;;;;;;31.05;23.80;;;15.40;99.00;;;;;;5101859;27;20826;-62
2021/09/27 05:31:59;;;;;;;33.08;23.75;;;15.30;99.10;;;;;;5108771;27;20265;-62
2021/09/27 05:34:49;;;;;;;32.88;23.52;;;15.30;99.10;;;;;;5100238;27;20036;-65
2021/09/27 05:37:31;;;;;;;31.65;23.73;;;15.30;99.10;;;;;;5107717;27;20221;-66
2021/09/27 05:40:38;;;;;;;36.30;23.63;;;15.30;99.20;;;;;;5104705;28;20078;-65
2021/09/27 05:43:37;;;;;;;34.55;23.17;;;15.20;99.20;;;;;;5102188;27;20075;-66
2021/09/27 05:46:16;;;;;;;35.10;24.85;;;15.20;99.20;;;;;;5108033;28;20047;-66
2021/09/27 05:49:11;;;;;;;31.20;24.45;;;15.20;99.30;;;;;;5084319;28;20048;-65
2021/09/27 05:51:36;;;;;;;31.67;23.80;;;15.20;99.30;;;;;;5107724;28;20560;-65
2021/09/27 05:54:30;;;;;;;34.20;24.08;;;15.20;99.40;;;;;;5105207;27;20039;-65
2021/09/27 05:57:02;;;;;;;32.17;24.15;;;15.30;99.50;;;;;;5104531;27;20407;-65
2021/09/27 05:59:49;;;;;;;34.08;23.98;;;15.20;99.50;;;;;;5113516;27;20034;-66
2021/09/27 06:02:46;;;;;;;29.85;23.90;;;15.20;99.50;;;;;;5111451;27;20097;-66
2021/09/27 06:05:50;;;;;;;37.13;24.33;;;15.30;99.50;;;;;;5107356;27;20073;-65
2021/09/27 06:08:20;;;;;;;;;;;15.30;99.40;;;;;;5089226;27;20055;-65
2021/09/27 06:10:53;;;;;;;31.17;23.60;;;15.20;99.40;;;;;;5113637;27;19999;-65
2021/09/27 06:13:22;;;;;;;30.90;23.45;;;15.20;99.60;;;;;;5116615;27;20040;-66
2021/09/27 06:15:53;;;;;;;37.67;23.73;;;15.20;99.60;;;;;;5106500;27;20118;-66
2021/09/27 06:18:28;;;;;;;32.25;24.73;;;15.30;99.70;;;;;;5110236;27;20422;-65
2021/09/27 06:21:01;;;;;;;29.65;23.17;;;15.30;99.70;;;;;;5108502;27;20530;-67
2021/09/27 06:23:50;;;;;;;35.25;24.08;;;15.30;99.70;;;;;;5089803;27;20068;-66
2021/09/27 06:26:17;;;;;;;30.08;23.63;;;15.40;99.70;;;;;;5111593;27;20129;-66
2021/09/27 06:29:13;;;;;;;31.15;23.17;;;15.30;99.70;;;;;;5088871;27;20521;-66
2021/09/27 06:31:49;;;;;;;35.63;23.15;;;15.40;99.70;;;;;;5116375;27;20068;-67
2021/09/27 06:34:26;;;;;;;33.58;23.35;;;15.40;99.70;;;;;;5108473;27;20396;-66
2021/09/27 06:36:57;;;;;;;31.08;23.88;;;15.50;99.70;;;;;;5112679;27;20051;-66
2021/09/27 06:39:27;;;;;;;32.75;24.42;;;15.50;99.70;;;;;;5099582;27;20116;-67
2021/09/27 06:41:53;;;;;;;31.95;23.50;;;15.50;99.70;;;;;;5108633;27;20036;-66
2021/09/27 06:44:19;;;;;;;33.75;23.50;;;15.50;99.70;;;;;;5112383;27;20047;-67
2021/09/27 06:46:45;;;;;;;31.13;24.05;;;15.60;99.70;;;;;;5107812;27;20103;-67
2021/09/27 06:49:11;;;;;;;36.10;23.08;;;15.70;99.70;;;;;;5107705;27;20050;-67
2021/09/27 06:51:41;;;;;;;29.98;22.52;;;15.70;99.70;;;;;;5109937;27;20453;-67
2021/09/27 06:54:12;;;;;;;32.80;22.02;;;15.80;99.60;;;;;;5110696;27;20038;-67
2021/09/27 06:56:38;;;;;;;29.60;21.60;;;15.90;99.60;;;;;;5107204;27;20135;-67
2021/09/27 06:59:05;;;;;;;31.33;23.42;;;15.90;99.50;;;;;;5111260;27;20032;-68
2021/09/27 07:01:31;;;;;;;32.70;23.98;;;16.00;99.50;;;;;;5114460;27;20077;-67
2021/09/27 07:03:57;;;;;;;28.77;23.60;;;16.00;99.50;;;;;;5103311;27;20037;-67
2021/09/27 07:06:23;;;;;;;32.17;23.60;;;16.00;99.60;;;;;;5110704;27;20918;-67
2021/09/27 07:08:49;;;;;;;27.30;22.67;;;16.00;99.40;;;;;;5109033;27;22295;-66
2021/09/27 07:11:15;;;;;;;34.92;24.05;;;16.00;99.30;;;;;;5112338;27;20036;-67
2021/09/27 07:13:42;;;;;;;32.17;24.25;;;16.00;99.40;;;;;;5107836;27;20413;-67
2021/09/27 07:16:09;;;;;;;34.03;24.90;;;16.00;99.30;;;;;;5106374;27;20523;-67
2021/09/27 07:18:35;;;;;;;32.97;23.25;;;16.00;99.40;;;;;;5109980;27;20176;-67
2021/09/27 07:21:01;;;;;;;32.58;23.70;;;16.00;99.40;;;;;;5102863;27;20044;-65
2021/09/27 07:23:27;;;;;;;31.90;24.35;;;16.10;99.50;;;;;;5109249;27;20052;-64
2021/09/27 07:25:53;;;;;;;32.13;24.92;;;16.00;99.50;;;;;;5080192;28;20043;-64
2021/09/27 07:28:21;;;;;;;33.78;24.23;;;16.00;99.50;;;;;;5111968;27;20399;-64
2021/09/27 07:30:48;;;;;;;34.03;26.63;;;16.10;99.50;;;;;;5089072;27;20047;-66
2021/09/27 07:33:14;;;;;;;36.75;25.88;;;16.00;99.60;;;;;;5096832;27;20042;-65
2021/09/27 07:35:40;;;;;;;35.33;25.15;;;16.00;99.70;;;;;;5107631;27;20571;-65
2021/09/27 07:38:06;;;;;;;36.35;25.85;;;16.10;99.70;;;;;;5108959;27;20043;-65
2021/09/27 07:40:35;;;;;;;38.60;25.55;;;16.10;99.70;;;;;;5107016;27;20040;-65
2021/09/27 07:43:02;;;;;;;31.90;22.55;;;16.20;99.80;;;;;;5104866;27;20044;-66
2021/09/27 07:45:33;;;;;;;35.53;24.08;;;16.20;99.70;;;;;;5107049;27;20123;-65
2021/09/27 07:47:59;;;;;;;33.50;25.65;;;16.30;99.70;;;;;;5110035;27;20035;-65
2021/09/27 07:50:25;;;;;;;33.00;25.33;;;16.30;99.50;;;;;;5106607;27;20048;-66
2021/09/27 07:52:50;;;;;;;34.30;24.02;;;16.30;99.50;;;;;;5106796;27;20385;-65
2021/09/27 07:55:16;;;;;;;33.10;24.63;;;16.40;99.50;;;;;;5108164;27;20118;-65
2021/09/27 07:57:42;;;;;;;30.02;24.60;;;16.40;99.50;;;;;;5109401;27;20055;-65
2021/09/27 08:00:10;;;;;;;33.55;24.02;;;16.40;99.50;;;;;;5107411;27;20045;-65
2021/09/27 08:02:35;;;;;;;32.95;23.58;;;16.50;99.50;;;;;;5108656;27;20044;-66
2021/09/27 08:05:01;;;;;;;32.55;24.48;;;16.50;99.50;;;;;;5089845;27;20055;-65
2021/09/27 08:07:27;;;;;;;33.20;24.05;;;16.50;99.50;;;;;;5104054;27;20093;-66
2021/09/27 08:09:52;;;;;;;29.38;22.45;;;16.50;99.50;;;;;;5108121;27;20055;-66
2021/09/27 08:12:19;;;;;;;30.88;22.13;;;16.60;99.50;;;;;;5107863;27;20046;-66
2021/09/27 08:14:45;;;;;;;30.77;23.65;;;16.60;99.40;;;;;;5101174;27;20058;-66
2021/09/27 08:17:10;;;;;;;31.02;23.27;;;16.70;99.40;;;;;;5093624;27;20079;-65
2021/09/27 08:19:41;;;;;;;29.70;23.52;;;16.70;99.30;;;;;;5097876;27;20392;-69
2021/09/27 08:22:07;;;;;;;30.65;21.58;;;16.80;99.30;;;;;;5100209;27;20043;-66
2021/09/27 08:24:32;;;;;;;34.17;23.33;;;16.80;99.20;;;;;;5093746;28;20059;-65
2021/09/27 08:27:00;;;;;;;35.78;25.27;;;16.80;99.20;;;;;;5099833;27;20520;-66
2021/09/27 08:29:26;;;;;;;39.42;27.92;;;16.80;99.00;;;;;;5105784;27;20038;-66
2021/09/27 08:31:52;;;;;;;44.28;28.90;;;16.80;99.00;;;;;;5082019;27;20035;-66
2021/09/27 08:34:18;;;;;;;45.72;30.77;;;16.90;99.10;;;;;;5105107;27;20035;-68
2021/09/27 08:36:46;;;;;;;37.95;30.15;;;16.90;99.10;;;;;;5097211;27;20047;-66
2021/09/27 08:39:12;;;;;;;41.13;31.85;;;16.90;99.10;;;;;;5104455;27;20043;-66
2021/09/27 08:41:54;;;;;;;43.55;31.05;;;16.90;99.10;;;;;;5104682;27;20040;-66
2021/09/27 08:44:31;;;;;;;43.10;31.10;;;16.90;99.00;;;;;;5108926;27;20143;-69
2021/09/27 08:47:19;;;;;;;39.67;30.55;;;16.80;99.00;;;;;;5105493;27;20646;-69
2021/09/27 08:50:05;;;;;;;45.83;30.60;;;16.80;99.00;;;;;;5108673;27;20509;-69
2021/09/27 08:52:35;;;;;;;44.13;29.48;;;16.80;99.00;;;;;;5105967;27;20043;-69
2021/09/27 08:55:04;;;;;;;40.45;29.35;;;16.80;99.00;;;;;;5082520;27;20049;-70
2021/09/27 08:57:29;;;;;;;44.95;30.55;;;16.90;99.00;;;;;;5097290;27;20391;-70
2021/09/27 09:00:14;;;;;;;42.72;31.05;;;16.90;99.10;;;;;;5103780;27;20046;-71
2021/09/27 09:02:54;;;;;;;63.40;41.78;;;17.00;99.00;;;;;;5097754;28;20032;-66
2021/09/27 09:05:26;;;;;;;43.80;27.15;;;17.10;99.00;;;;;;5098193;28;20190;-67
2021/09/27 09:08:30;;;;;;;35.03;24.75;;;17.10;99.00;;;;;;5099253;27;20492;-67
2021/09/27 09:11:30;;;;;;;30.15;22.38;;;17.40;98.90;;;;;;5106036;27;20047;-66
2021/09/27 09:14:34;;;;;;;27.42;21.83;;;17.60;98.60;;;;;;5097644;27;20047;-66
2021/09/27 09:17:09;;;;;;;25.77;20.65;;;17.80;98.10;;;;;;5095233;27;20102;-66
2021/09/27 09:19:35;;;;;;;27.08;20.05;;;17.90;98.00;;;;;;5091614;27;20043;-66
2021/09/27 09:22:06;;;;;;;26.20;21.40;;;18.00;97.60;;;;;;5096058;27;20032;-66
2021/09/27 09:24:37;;;;;;;28.92;22.20;;;18.00;97.40;;;;;;5090053;27;20114;-66
2021/09/27 09:27:08;;;;;;;26.83;23.17;;;18.00;97.50;;;;;;5091112;28;20039;-71
2021/09/27 09:29:36;;;;;;;29.70;21.85;;;17.90;97.60;;;;;;5089350;28;20035;-71
2021/09/27 09:32:24;;;;;;;25.80;19.73;;;17.90;97.60;;;;;;5091327;27;20062;-69
2021/09/27 09:35:11;;;;;;;21.65;18.90;;;18.00;97.50;;;;;;5095207;27;20046;-70
2021/09/27 09:37:40;;;;;;;28.38;19.02;;;18.00;97.50;;;;;;5095113;27;20104;-72
2021/09/27 09:40:26;;;;;;;20.70;18.50;;;18.10;97.40;;;;;;5095811;27;20054;-72
2021/09/27 09:43:00;;;;;;;22.38;19.52;;;18.20;97.10;;;;;;5073623;28;20069;-67
2021/09/27 09:45:35;;;;;;;24.13;19.63;;;18.30;97.10;;;;;;5090893;28;20051;-69
2021/09/27 09:48:20;;;;;;;24.48;17.92;;;18.60;97.00;;;;;;5072781;28;20120;-68
2021/09/27 09:50:48;;;;;;;22.10;17.38;;;18.80;96.70;;;;;;5108217;27;20035;-68
2021/09/27 09:53:22;;;;;;;18.73;16.58;;;19.00;96.30;;;;;;5090887;28;20403;-68
2021/09/27 09:56:09;;;;;;;23.10;18.45;;;19.10;95.90;;;;;;5096086;28;22235;-68
2021/09/27 09:58:38;;;;;;;20.08;16.42;;;19.20;95.60;;;;;;5091220;28;20054;-68
2021/09/27 10:01:27;;;;;;;20.20;17.95;;;19.30;95.40;;;;;;5092255;28;20114;-67
2021/09/27 10:04:21;;;;;;;19.38;17.20;;;19.30;95.40;;;;;;5092442;28;20035;-66
2021/09/27 10:06:59;;;;;;;18.65;16.67;;;19.40;95.60;;;;;;5075599;28;20056;-66
2021/09/27 10:09:55;;;;;;;19.48;16.02;;;19.50;95.20;;;;;;5092517;28;20036;-66
2021/09/27 10:12:39;;;;;;;18.08;14.65;;;19.70;95.00;;;;;;5108806;27;20043;-65
2021/09/27 10:15:05;;;;;;;18.33;14.98;;;19.90;94.20;;;;;;5096634;28;20674;-67
2021/09/27 10:17:36;;;;;;;17.55;14.43;;;19.90;94.10;;;;;;5092889;28;20145;-66
2021/09/27 10:20:05;;;;;;;16.00;14.30;;;19.90;93.80;;;;;;5096702;28;20063;-66
2021/09/27 10:22:37;;;;;;;16.63;14.50;;;19.90;93.60;;;;;;5096624;27;20047;-67
2021/09/27 10:25:28;;;;;;;17.10;14.55;;;19.90;93.70;;;;;;5093095;28;20133;-66
2021/09/27 10:27:54;;;;;;;17.60;14.75;;;19.90;93.60;;;;;;5095259;28;20044;-66
2021/09/27 10:30:23;;;;;;;16.58;13.93;;;19.80;93.60;;;;;;5080265;28;20115;-66
2021/09/27 10:32:53;;;;;;;15.20;13.50;;;19.80;93.50;;;;;;5099326;28;20074;-66
2021/09/27 10:35:35;;;;;;;17.65;14.98;;;19.80;93.40;;;;;;5101082;28;20533;-66
2021/09/27 10:38:18;;;;;;;16.15;14.25;;;19.90;93.60;;;;;;5101021;27;20148;-66
2021/09/27 10:40:46;;;;;;;15.23;13.55;;;19.90;93.60;;;;;;5105009;27;20511;-67
2021/09/27 10:43:17;;;;;;;15.90;14.05;;;19.90;93.30;;;;;;5109477;27;20542;-66
2021/09/27 10:45:49;;;;;;;17.15;13.55;;;20.00;93.40;;;;;;5099725;27;20518;-70
2021/09/27 10:48:17;;;;;;;19.75;13.70;;;19.90;93.20;;;;;;5108736;27;20507;-71
2021/09/27 10:50:49;;;;;;;18.50;14.55;;;19.90;93.30;;;;;;5124159;27;20055;-70
2021/09/27 10:53:45;;;;;;;16.98;13.70;;;19.90;93.60;;;;;;5109370;27;20110;-70
2021/09/27 10:56:38;;;;;;;15.98;14.23;;;19.90;93.20;;;;;;5082220;28;20881;-70
2021/09/27 10:59:14;;;;;;;17.63;13.60;;;19.90;93.20;;;;;;5111843;27;20157;-70
2021/09/27 11:01:53;;;;;;;19.23;14.40;;;19.90;93.40;;;;;;5112295;27;20054;-70
2021/09/27 11:04:43;;;;;;;19.13;14.48;;;19.80;93.40;;;;;;5111934;27;20118;-70
2021/09/27 11:07:16;;;;;;;15.05;12.95;;;19.90;93.50;;;;;;5108093;27;20389;-70
2021/09/27 11:09:44;;;;;;;17.50;12.02;;;19.90;93.40;;;;;;5107480;27;20055;-70
2021/09/27 11:12:18;;;;;;;14.27;12.48;;;20.00;93.30;;;;;;5108241;27;20043;-71
2021/09/27 11:14:56;;;;;;;13.85;11.80;;;20.10;93.30;;;;;;5111525;27;20502;-70
2021/09/27 11:17:25;;;;;;;14.55;12.73;;;20.20;92.70;;;;;;5103465;27;20043;-70
2021/09/27 11:20:05;;;;;;;13.63;11.23;;;20.20;92.50;;;;;;5099674;27;20044;-70
2021/09/27 11:22:38;;;;;;;14.32;10.95;;;20.30;92.20;;;;;;5111050;27;20182;-69
2021/09/27 11:25:35;;;;;;;14.88;11.00;;;20.30;92.20;;;;;;5110737;27;20502;-70
2021/09/27 11:28:25;;;;;;;17.27;11.63;;;20.40;92.10;;;;;;5097763;27;20138;-70
2021/09/27 11:31:10;;;;;;;13.70;10.27;;;20.40;92.00;;;;;;5107377;27;20096;-70
2021/09/27 11:33:35;;;;;;;13.10;10.43;;;20.40;91.90;;;;;;5089002;27;20501;-70
2021/09/27 11:36:22;;;;;;;13.20;10.80;;;20.40;91.80;;;;;;5108451;27;20043;-71
2021/09/27 11:38:50;;;;;;;13.60;10.57;;;20.50;91.70;;;;;;5108840;27;20031;-71
2021/09/27 11:41:15;;;;;;;12.98;10.77;;;20.40;91.50;;;;;;5108402;27;20451;-70
2021/09/27 11:44:28;;;;;;;15.15;11.18;;;20.50;91.70;;;;;;5113307;27;20044;-70
2021/09/27 11:47:01;;;;;;;12.07;10.77;;;20.50;91.60;;;;;;5107317;27;20132;-70
2021/09/27 11:49:48;;;;;;;11.13;9.82;;;20.50;91.50;;;;;;5107263;27;20043;-71
2021/09/27 11:52:27;;;;;;;13.55;10.45;;;20.50;91.30;;;;;;5107186;27;20668;-69
2021/09/27 11:55:09;;;;;;;13.13;9.82;;;20.50;91.20;;;;;;5108060;27;20050;-70
2021/09/27 11:57:45;;;;;;;11.18;10.02;;;20.50;91.20;;;;;;5110525;27;20043;-70
2021/09/27 12:00:19;;;;;;;13.25;9.93;;;20.50;91.10;;;;;;5110085;27;20043;-69
2021/09/27 12:03:19;;;;;;;11.60;10.38;;;20.50;91.00;;;;;;5110158;27;20127;-70
2021/09/27 12:05:47;;;;;;;10.70;9.60;;;20.60;90.40;;;;;;5104040;27;20039;-70
2021/09/27 12:08:29;;;;;;;11.48;10.23;;;20.60;90.70;;;;;;5106408;27;20119;-70
2021/09/27 12:11:08;;;;;;;15.88;9.90;;;20.70;90.60;;;;;;5079139;28;20044;-70
2021/09/27 12:13:55;;;;;;;12.70;10.52;;;20.70;90.50;;;;;;5092927;27;20038;-70
2021/09/27 12:16:20;;;;;;;14.52;10.55;;;20.60;90.20;;;;;;5110152;27;20078;-70
2021/09/27 12:18:53;;;;;;;12.77;10.27;;;20.60;90.30;;;;;;5104292;27;20451;-70
2021/09/27 12:21:26;;;;;;;12.30;9.82;;;20.60;90.40;;;;;;5092280;27;20433;-70
2021/09/27 12:24:12;;;;;;;12.10;10.00;;;20.60;90.30;;;;;;5110858;27;20519;-70
2021/09/27 12:26:46;;;;;;;11.63;10.43;;;20.50;90.20;;;;;;5078492;28;20139;-70
2021/09/27 12:29:16;;;;;;;13.57;9.93;;;20.60;90.40;;;;;;5107899;27;20039;-70
2021/09/27 12:32:06;;;;;;;14.27;9.75;;;20.60;90.30;;;;;;5107534;27;20487;-70
2021/09/27 12:34:43;;;;;;;10.85;9.20;;;20.80;90.30;;;;;;5108833;27;20038;-70
2021/09/27 12:37:12;;;;;;;11.30;8.82;;;20.90;90.30;;;;;;5109751;27;20138;-71
2021/09/27 12:39:39;;;;;;;14.98;9.60;;;20.90;89.60;;;;;;5092699;27;20061;-71
2021/09/27 12:42:12;;;;;;;18.17;9.82;;;20.90;89.70;;;;;;5097586;27;20035;-70
2021/09/27 12:44:44;;;;;;;12.18;9.98;;;20.90;89.30;;;;;;5082284;27;20056;-70
2021/09/27 12:47:10;;;;;;;14.27;9.77;;;20.80;89.50;;;;;;5098110;27;20128;-70
2021/09/27 12:49:45;;;;;;;10.43;9.35;;;20.80;90.00;;;;;;5103967;27;20545;-70
2021/09/27 12:52:34;;;;;;;10.40;8.68;;;20.70;89.90;;;;;;5104606;27;20062;-70
2021/09/27 12:55:07;;;;;;;13.32;10.23;;;20.80;90.20;;;;;;5110119;27;20044;-70
2021/09/27 12:57:49;;;;;;;15.15;9.43;;;20.70;90.10;;;;;;5103835;27;20074;-70
2021/09/27 13:00:22;;;;;;;12.98;9.25;;;20.80;90.10;;;;;;5108937;27;20043;-70
2021/09/27 13:02:50;;;;;;;9.70;8.70;;;20.80;90.10;;;;;;5108060;27;20569;-70
2021/09/27 13:05:23;;;;;;;12.90;9.27;;;20.80;90.20;;;;;;5097481;27;20040;-70
2021/09/27 13:07:51;;;;;;;10.68;9.20;;;20.90;90.20;;;;;;5107247;27;20040;-71
2021/09/27 13:10:19;;;;;;;10.98;8.90;;;20.90;90.20;;;;;;5107785;27;20036;-71
2021/09/27 13:13:07;;;;;;;10.65;9.32;;;21.00;90.00;;;;;;5108749;27;20071;-70
2021/09/27 13:15:58;;;;;;;11.93;8.43;;;21.00;89.90;;;;;;5097927;27;20118;-71
2021/09/27 13:18:28;;;;;;;9.52;7.25;;;21.10;90.10;;;;;;5101351;27;20043;-71